createdAt,value
2022-07-29T00:00:00.659Z,28.86
2022-07-29T00:02:28.100Z,28.83
2022-07-29T00:04:55.430Z,28.76
2022-07-29T00:07:22.762Z,28.81
2022-07-29T00:09:51.047Z,28.81
2022-07-29T00:12:21.409Z,28.84
2022-07-29T00:14:55.365Z,28.85
2022-07-29T00:17:24.081Z,28.83
2022-07-29T00:19:51.365Z,28.85
2022-07-29T00:22:18.676Z,28.85
2022-07-29T00:24:45.916Z,28.91
2022-07-29T00:27:13.082Z,28.92
2022-07-29T00:29:40.261Z,28.94
2022-07-29T00:32:07.949Z,28.91
2022-07-29T00:34:36.571Z,28.89
2022-07-29T00:37:03.777Z,28.91
2022-07-29T00:39:30.969Z,28.93
2022-07-29T00:41:58.153Z,28.90
2022-07-29T00:44:25.305Z,28.88
2022-07-29T00:46:52.884Z,28.86
2022-07-29T00:49:20.217Z,28.85
2022-07-29T00:51:50.382Z,28.83
2022-07-29T00:54:18.017Z,28.78
2022-07-29T00:56:45.666Z,28.81
2022-07-29T00:59:12.841Z,28.84
2022-07-29T01:01:40.191Z,28.86
2022-07-29T01:04:07.795Z,28.83
2022-07-29T01:06:36.388Z,28.84
2022-07-29T01:09:05.377Z,28.83
2022-07-29T01:11:33.553Z,28.85
2022-07-29T01:14:01.879Z,28.88
2022-07-29T01:16:34.389Z,28.86
2022-07-29T01:19:13.846Z,28.90
2022-07-29T01:21:52.462Z,28.95
2022-07-29T01:24:43.765Z,28.91
2022-07-29T01:27:33.520Z,28.91
2022-07-29T01:30:05.288Z,28.90
2022-07-29T01:32:38.206Z,28.90
2022-07-29T01:35:11.414Z,28.86
2022-07-29T01:37:43.529Z,28.88
2022-07-29T01:40:19.364Z,28.85
2022-07-29T01:42:52.674Z,28.83
2022-07-29T01:45:25.691Z,28.82
2022-07-29T01:47:59.475Z,28.84
2022-07-29T01:50:30.354Z,28.85
2022-07-29T01:53:00.998Z,28.87
2022-07-29T01:55:31.998Z,28.85
2022-07-29T01:58:01.984Z,28.84
2022-07-29T02:00:31.866Z,28.82
2022-07-29T02:03:00.270Z,28.88
2022-07-29T02:05:29.776Z,28.95
2022-07-29T02:08:00.162Z,28.94
2022-07-29T02:10:32.418Z,28.96
2022-07-29T02:13:00.735Z,28.96
2022-07-29T02:15:32.755Z,28.94
2022-07-29T02:18:05.537Z,28.91
2022-07-29T02:20:33.734Z,28.92
2022-07-29T02:23:02.568Z,28.92
2022-07-29T02:25:36.822Z,28.91
2022-07-29T02:28:06.736Z,28.94
2022-07-29T02:30:40.123Z,28.86
2022-07-29T02:33:08.835Z,28.85
2022-07-29T02:35:36.491Z,28.86
2022-07-29T02:38:04.635Z,28.87
2022-07-29T02:40:32.152Z,28.88
2022-07-29T02:43:00.268Z,28.89
2022-07-29T02:45:28.721Z,28.88
2022-07-29T02:48:00.620Z,28.94
2022-07-29T02:50:32.721Z,28.94
2022-07-29T02:53:06.413Z,28.94
2022-07-29T02:55:37.917Z,28.96
2022-07-29T02:58:11.914Z,28.95
2022-07-29T03:00:41.346Z,28.95
2022-07-29T03:03:15.492Z,28.96
2022-07-29T03:05:42.959Z,28.95
2022-07-29T03:08:12.369Z,28.93
2022-07-29T03:10:43.543Z,28.92
2022-07-29T03:13:12.230Z,28.89
2022-07-29T03:15:39.965Z,28.90
2022-07-29T03:18:07.969Z,28.92
2022-07-29T03:20:38.359Z,28.91
2022-07-29T03:23:05.630Z,28.88
2022-07-29T03:25:32.828Z,28.87
2022-07-29T03:28:00.443Z,28.86
2022-07-29T03:30:28.050Z,28.85
2022-07-29T03:32:56.631Z,28.85
2022-07-29T03:35:26.110Z,28.91
2022-07-29T03:37:54.655Z,28.89
2022-07-29T03:40:26.208Z,28.89
2022-07-29T03:42:56.439Z,28.90
2022-07-29T03:45:25.189Z,28.91
2022-07-29T03:48:00.604Z,28.93
2022-07-29T03:50:29.661Z,28.94
2022-07-29T03:52:59.045Z,28.97
2022-07-29T03:55:27.273Z,28.98
2022-07-29T03:57:56.345Z,28.95
2022-07-29T04:00:25.207Z,29.00
2022-07-29T04:02:52.434Z,28.96
2022-07-29T04:05:20.032Z,28.95
2022-07-29T04:07:48.545Z,28.93
2022-07-29T04:10:17.733Z,28.93
2022-07-29T04:12:55.488Z,28.91
2022-07-29T04:15:22.715Z,28.90
2022-07-29T04:17:49.837Z,28.88
2022-07-29T04:20:17.059Z,28.84
2022-07-29T04:22:44.253Z,28.86
2022-07-29T04:25:11.463Z,28.86
2022-07-29T04:27:39.964Z,28.86
2022-07-29T04:30:08.259Z,28.97
2022-07-29T04:32:35.390Z,28.90
2022-07-29T04:35:02.587Z,28.93
2022-07-29T04:37:29.738Z,28.98
2022-07-29T04:39:56.875Z,29.00
2022-07-29T04:42:26.689Z,28.99
2022-07-29T04:44:56.361Z,28.97
2022-07-29T04:47:23.611Z,28.97
2022-07-29T04:49:50.728Z,28.98
2022-07-29T04:52:17.914Z,28.97
2022-07-29T04:54:45.070Z,28.98
2022-07-29T04:57:12.224Z,29.06
2022-07-29T04:59:39.374Z,29.01
2022-07-29T05:02:07.914Z,28.97
2022-07-29T05:04:35.050Z,28.89
2022-07-29T05:07:02.224Z,28.89
2022-07-29T05:09:29.362Z,28.86
2022-07-29T05:11:56.521Z,28.90
2022-07-29T05:14:23.701Z,28.84
2022-07-29T05:16:50.855Z,28.83
2022-07-29T05:19:19.530Z,28.85
2022-07-29T05:21:46.680Z,28.80
2022-07-29T05:24:14.246Z,28.89
2022-07-29T05:26:43.506Z,28.92
2022-07-29T05:29:44.028Z,28.91
2022-07-29T05:31:57.770Z,28.93
2022-07-29T05:34:26.294Z,28.94
2022-07-29T05:36:53.486Z,28.93
2022-07-29T05:39:20.704Z,28.96
2022-07-29T05:41:51.818Z,28.96
2022-07-29T05:44:19.776Z,28.95
2022-07-29T05:46:46.989Z,28.93
2022-07-29T05:49:26.930Z,28.92
2022-07-29T05:51:56.102Z,28.92
2022-07-29T05:54:23.245Z,28.88
2022-07-29T05:56:50.451Z,28.88
2022-07-29T05:59:18.103Z,28.86
2022-07-29T06:01:45.672Z,28.87
2022-07-29T06:04:13.075Z,28.92
2022-07-29T06:06:40.650Z,28.92
2022-07-29T06:09:12.754Z,28.89
2022-07-29T06:11:41.553Z,28.89
2022-07-29T06:14:08.675Z,28.92
2022-07-29T06:16:35.915Z,28.92
2022-07-29T06:19:03.395Z,28.94
2022-07-29T06:21:30.528Z,28.94
2022-07-29T06:23:57.735Z,28.94
2022-07-29T06:26:30.339Z,28.96
2022-07-29T06:28:58.452Z,28.94
2022-07-29T06:31:25.647Z,28.95
2022-07-29T06:33:54.682Z,28.96
2022-07-29T06:36:22.928Z,28.93
2022-07-29T06:38:52.309Z,28.92
2022-07-29T06:41:20.898Z,28.88
2022-07-29T06:43:51.731Z,28.87
2022-07-29T06:46:21.289Z,28.85
2022-07-29T06:48:49.151Z,28.85
2022-07-29T06:51:16.788Z,28.88
2022-07-29T06:54:00.262Z,28.90
2022-07-29T06:56:30.764Z,28.88
2022-07-29T06:58:59.285Z,28.90
2022-07-29T07:01:28.749Z,28.94
2022-07-29T07:03:55.922Z,28.91
2022-07-29T07:06:23.175Z,28.91
2022-07-29T07:08:50.331Z,28.89
2022-07-29T07:11:17.482Z,28.93
2022-07-29T07:13:44.660Z,28.95
2022-07-29T07:16:13.508Z,28.98
2022-07-29T07:18:40.720Z,28.95
2022-07-29T07:21:07.941Z,28.97
2022-07-29T07:23:35.098Z,28.95
2022-07-29T07:26:02.251Z,28.94
2022-07-29T07:28:29.581Z,28.95
2022-07-29T07:30:56.750Z,28.91
2022-07-29T07:33:25.273Z,28.93
2022-07-29T07:35:52.494Z,28.87
2022-07-29T07:38:19.671Z,28.87
2022-07-29T07:40:46.821Z,28.90
2022-07-29T07:43:14.023Z,28.86
2022-07-29T07:45:41.269Z,28.89
2022-07-29T07:48:08.545Z,28.93
2022-07-29T07:50:37.133Z,28.96
2022-07-29T07:53:04.455Z,28.96
2022-07-29T07:55:47.563Z,28.98
2022-07-29T07:58:18.723Z,28.98
2022-07-29T08:00:45.962Z,28.98
2022-07-29T08:03:16.935Z,29.02
2022-07-29T08:05:45.907Z,29.01
2022-07-29T08:08:13.093Z,29.02
2022-07-29T08:10:40.256Z,29.00
2022-07-29T08:13:09.020Z,28.99
2022-07-29T08:15:36.625Z,28.98
2022-07-29T08:18:08.481Z,28.97
2022-07-29T08:20:36.516Z,28.95
2022-07-29T08:23:06.050Z,28.95
2022-07-29T08:25:33.219Z,28.91
2022-07-29T08:28:04.925Z,28.85
2022-07-29T08:30:32.381Z,28.88
2022-07-29T08:32:59.926Z,28.92
2022-07-29T08:35:29.172Z,28.92
2022-07-29T08:37:59.327Z,28.91
2022-07-29T08:40:32.137Z,28.95
2022-07-29T08:43:04.637Z,28.94
2022-07-29T08:45:41.982Z,28.96
2022-07-29T08:48:15.883Z,28.99
2022-07-29T08:50:46.489Z,29.00
2022-07-29T08:53:15.187Z,28.98
2022-07-29T08:55:45.040Z,28.99
2022-07-29T08:58:15.615Z,29.00
2022-07-29T09:00:45.729Z,29.02
2022-07-29T09:03:16.889Z,28.99
2022-07-29T09:05:48.140Z,28.98
2022-07-29T09:08:16.857Z,28.98
2022-07-29T09:10:45.934Z,28.97
2022-07-29T09:13:13.161Z,28.98
2022-07-29T09:15:40.373Z,28.96
2022-07-29T09:18:07.597Z,28.90
2022-07-29T09:20:53.517Z,28.89
2022-07-29T09:23:23.420Z,28.92
2022-07-29T09:25:53.410Z,28.91
2022-07-29T09:28:20.551Z,28.88
2022-07-29T09:30:54.962Z,28.92
2022-07-29T09:33:23.136Z,28.90
2022-07-29T09:36:00.588Z,28.90
2022-07-29T09:38:29.170Z,28.96
2022-07-29T09:41:05.745Z,28.98
2022-07-29T09:43:34.038Z,29.00
2022-07-29T09:46:12.265Z,28.99
2022-07-29T09:48:39.793Z,29.00
2022-07-29T09:51:20.568Z,29.02
2022-07-29T09:53:49.467Z,29.00
2022-07-29T09:56:17.970Z,29.01
2022-07-29T09:58:45.173Z,29.00
2022-07-29T10:01:13.422Z,29.00
2022-07-29T10:03:52.189Z,29.00
2022-07-29T10:06:19.458Z,28.97
2022-07-29T10:08:47.503Z,28.92
2022-07-29T10:11:16.740Z,28.92
2022-07-29T10:13:46.759Z,28.93
2022-07-29T10:16:15.331Z,28.96
2022-07-29T10:18:43.400Z,28.94
2022-07-29T10:21:10.647Z,28.97
2022-07-29T10:23:46.807Z,28.96
2022-07-29T10:26:14.587Z,28.98
2022-07-29T10:28:41.762Z,29.00
2022-07-29T10:31:20.203Z,29.01
2022-07-29T10:33:59.098Z,29.02
2022-07-29T10:36:44.098Z,29.05
2022-07-29T10:39:24.967Z,29.06
2022-07-29T10:42:06.977Z,29.06
2022-07-29T10:44:37.179Z,29.04
2022-07-29T10:47:06.211Z,29.04
2022-07-29T10:49:34.527Z,29.05
2022-07-29T10:52:06.029Z,29.04
2022-07-29T10:54:47.751Z,29.04
2022-07-29T10:57:17.685Z,29.03
2022-07-29T10:59:46.990Z,28.97
2022-07-29T11:02:44.766Z,28.95
2022-07-29T11:05:14.351Z,28.95
2022-07-29T11:08:26.260Z,28.97
2022-07-29T11:11:37.652Z,28.99
2022-07-29T11:14:04.991Z,28.98
2022-07-29T11:17:00.429Z,28.98
2022-07-29T11:19:30.609Z,29.02
2022-07-29T11:21:58.688Z,29.03
2022-07-29T11:24:30.092Z,29.05
2022-07-29T11:27:11.217Z,29.06
2022-07-29T11:30:01.242Z,29.07
2022-07-29T11:32:38.012Z,29.10
2022-07-29T11:35:37.396Z,29.09
2022-07-29T11:38:28.013Z,29.10
2022-07-29T11:44:08.929Z,29.11
2022-07-29T11:46:47.501Z,29.11
2022-07-29T11:49:20.436Z,29.05
2022-07-29T11:51:53.460Z,29.02
2022-07-29T11:54:27.514Z,28.99
2022-07-29T11:56:55.104Z,28.99
2022-07-29T11:59:22.767Z,29.02
2022-07-29T12:02:18.428Z,29.03
2022-07-29T12:04:51.694Z,29.06
2022-07-29T12:07:33.688Z,29.06
2022-07-29T12:10:03.846Z,29.12
2022-07-29T12:12:31.043Z,29.15
2022-07-29T12:14:58.248Z,29.14
2022-07-29T12:17:30.582Z,29.15
2022-07-29T12:20:00.086Z,29.15
2022-07-29T12:22:30.123Z,29.19
2022-07-29T12:25:31.919Z,29.18
2022-07-29T12:27:59.750Z,29.20
2022-07-29T12:30:39.419Z,29.20
2022-07-29T12:33:23.229Z,29.18
2022-07-29T12:36:06.045Z,29.18
2022-07-29T12:38:36.447Z,29.18
2022-07-29T12:41:04.345Z,29.17
2022-07-29T12:43:32.489Z,29.11
2022-07-29T12:46:13.415Z,29.10
2022-07-29T12:48:42.085Z,29.06
2022-07-29T12:51:10.350Z,29.08
2022-07-29T12:53:39.411Z,29.12
2022-07-29T12:56:41.392Z,29.08
2022-07-29T12:59:12.770Z,29.12
2022-07-29T13:01:39.960Z,29.16
2022-07-29T13:04:07.320Z,29.19
2022-07-29T13:06:38.258Z,29.20
2022-07-29T13:09:09.721Z,29.22
2022-07-29T13:11:39.391Z,29.23
2022-07-29T13:14:08.285Z,29.24
2022-07-29T13:16:35.752Z,29.24
2022-07-29T13:19:10.979Z,29.28
2022-07-29T13:21:39.140Z,29.27
2022-07-29T13:24:08.279Z,29.29
2022-07-29T13:26:36.031Z,29.29
2022-07-29T13:29:03.378Z,29.27
2022-07-29T13:31:31.057Z,29.30
2022-07-29T13:33:58.184Z,29.23
2022-07-29T13:36:25.481Z,29.21
2022-07-29T13:38:52.656Z,29.19
2022-07-29T13:41:21.191Z,29.20
2022-07-29T13:43:48.358Z,29.18
2022-07-29T13:46:17.312Z,29.19
2022-07-29T13:48:44.604Z,29.20
2022-07-29T13:51:12.059Z,29.18
2022-07-29T13:53:39.189Z,29.22
2022-07-29T13:56:06.390Z,29.23
2022-07-29T13:58:35.127Z,29.29
2022-07-29T14:01:02.327Z,29.30
2022-07-29T14:03:29.515Z,29.31
2022-07-29T14:05:56.660Z,29.33
2022-07-29T14:08:23.839Z,29.30
2022-07-29T14:10:51.319Z,29.33
2022-07-29T14:13:25.218Z,29.33
2022-07-29T14:15:54.800Z,29.36
2022-07-29T14:18:21.997Z,29.34
2022-07-29T14:20:49.309Z,29.33
2022-07-29T14:23:16.523Z,29.36
2022-07-29T14:25:44.575Z,29.28
2022-07-29T14:28:12.295Z,29.25
2022-07-29T14:30:41.869Z,29.22
2022-07-29T14:33:10.395Z,29.22
2022-07-29T14:35:37.609Z,29.23
2022-07-29T14:38:04.790Z,29.25
2022-07-29T14:40:31.976Z,29.23
2022-07-29T14:42:59.150Z,29.27
2022-07-29T14:45:26.323Z,29.31
2022-07-29T14:47:57.263Z,29.33
2022-07-29T14:50:31.329Z,29.34
2022-07-29T14:52:59.025Z,29.36
2022-07-29T14:55:26.561Z,29.38
2022-07-29T14:57:59.464Z,29.38
2022-07-29T15:00:33.138Z,29.37
2022-07-29T15:03:02.413Z,29.38
2022-07-29T15:05:32.259Z,29.36
2022-07-29T15:08:00.065Z,29.38
2022-07-29T15:10:27.263Z,29.37
2022-07-29T15:12:54.443Z,29.36
2022-07-29T15:15:21.874Z,29.37
2022-07-29T15:17:49.008Z,29.30
2022-07-29T15:20:16.471Z,29.28
2022-07-29T15:22:44.992Z,29.27
2022-07-29T15:25:12.158Z,29.29
2022-07-29T15:27:39.314Z,29.30
2022-07-29T15:30:07.782Z,29.31
2022-07-29T15:32:34.963Z,29.35
2022-07-29T15:35:02.211Z,29.34
2022-07-29T15:37:29.349Z,29.32
2022-07-29T15:40:17.957Z,29.36
2022-07-29T15:42:45.087Z,29.34
2022-07-29T15:45:12.236Z,29.35
2022-07-29T15:47:39.403Z,29.40
2022-07-29T15:50:07.711Z,29.37
2022-07-29T15:52:34.842Z,29.37
2022-07-29T15:55:02.002Z,29.35
2022-07-29T15:57:30.513Z,29.36
2022-07-29T15:59:57.704Z,29.33
2022-07-29T16:02:24.897Z,29.35
2022-07-29T16:04:52.096Z,29.35
2022-07-29T16:07:19.376Z,29.35
2022-07-29T16:09:52.384Z,29.31
2022-07-29T16:12:20.279Z,29.33
2022-07-29T16:14:48.847Z,29.30
2022-07-29T16:17:16.026Z,29.28
2022-07-29T16:19:43.954Z,29.32
2022-07-29T16:22:11.970Z,29.31
2022-07-29T16:24:39.241Z,29.31
2022-07-29T16:27:06.423Z,29.32
2022-07-29T16:29:33.648Z,29.33
2022-07-29T16:32:02.840Z,29.36
2022-07-29T16:34:30.053Z,29.35
2022-07-29T16:36:57.230Z,29.37
2022-07-29T16:39:24.374Z,29.37
2022-07-29T16:41:51.573Z,29.36
2022-07-29T16:44:18.710Z,29.36
2022-07-29T16:46:45.937Z,29.36
2022-07-29T16:49:18.363Z,29.36
2022-07-29T16:51:46.804Z,29.33
2022-07-29T16:54:13.947Z,29.36
2022-07-29T16:56:41.231Z,29.35
2022-07-29T16:59:08.460Z,29.35
2022-07-29T17:01:35.630Z,29.29
2022-07-29T17:04:02.833Z,29.29
2022-07-29T17:06:31.362Z,29.29
2022-07-29T17:08:58.531Z,29.30
2022-07-29T17:11:53.270Z,29.31
2022-07-29T17:14:12.791Z,29.31
2022-07-29T17:16:39.970Z,29.34
2022-07-29T17:19:07.187Z,29.33
2022-07-29T17:21:35.755Z,29.37
2022-07-29T17:24:14.516Z,29.38
2022-07-29T17:26:41.682Z,29.40
2022-07-29T17:29:08.908Z,29.40
2022-07-29T17:31:38.527Z,29.39
2022-07-29T17:34:05.752Z,29.39
2022-07-29T17:36:33.293Z,29.39
2022-07-29T17:39:05.041Z,29.39
2022-07-29T17:41:32.263Z,29.38
2022-07-29T17:43:59.518Z,29.39
2022-07-29T17:46:27.495Z,29.38
2022-07-29T17:48:55.245Z,29.49
2022-07-29T17:51:22.924Z,29.49
2022-07-29T17:53:50.241Z,29.46
2022-07-29T17:56:19.367Z,29.40
2022-07-29T17:58:46.587Z,29.31
2022-07-29T18:01:13.858Z,29.34
2022-07-29T18:03:41.227Z,29.29
2022-07-29T18:06:08.740Z,29.32
2022-07-29T18:08:36.051Z,29.31
2022-07-29T18:11:03.569Z,29.33
2022-07-29T18:13:32.394Z,29.32
2022-07-29T18:16:00.634Z,29.36
2022-07-29T18:18:28.154Z,29.37
2022-07-29T18:20:55.578Z,29.38
2022-07-29T18:23:22.747Z,29.40
2022-07-29T18:25:49.923Z,29.37
2022-07-29T18:28:17.213Z,29.38
2022-07-29T18:30:47.124Z,29.37
2022-07-29T18:33:22.514Z,29.36
2022-07-29T18:35:52.414Z,29.37
2022-07-29T18:38:37.246Z,29.38
2022-07-29T18:41:04.379Z,29.38
2022-07-29T18:43:31.553Z,29.34
2022-07-29T18:46:00.088Z,29.31
2022-07-29T18:48:27.481Z,29.29
2022-07-29T18:50:54.633Z,29.29
2022-07-29T18:53:21.787Z,29.34
2022-07-29T18:55:48.924Z,29.34
2022-07-29T18:58:16.095Z,29.34
2022-07-29T19:00:43.269Z,29.35
2022-07-29T19:03:11.954Z,29.36
2022-07-29T19:05:39.189Z,29.39
2022-07-29T19:08:06.380Z,29.41
2022-07-29T19:10:33.561Z,29.42
2022-07-29T19:13:00.718Z,29.40
2022-07-29T19:15:27.945Z,29.42
2022-07-29T19:17:59.163Z,29.40
2022-07-29T19:20:29.619Z,29.40
2022-07-29T19:22:56.835Z,29.39
2022-07-29T19:25:24.310Z,29.40
2022-07-29T19:27:51.692Z,29.39
2022-07-29T19:30:18.903Z,29.39
2022-07-29T19:32:46.176Z,29.38
2022-07-29T19:35:13.376Z,29.36
2022-07-29T19:37:41.891Z,29.34
2022-07-29T19:40:09.526Z,29.32
2022-07-29T19:42:36.695Z,29.35
2022-07-29T19:45:04.514Z,29.34
2022-07-29T19:47:31.649Z,29.36
2022-07-29T19:49:58.780Z,29.38
2022-07-29T19:52:25.943Z,29.40
2022-07-29T19:54:54.451Z,29.39
2022-07-29T19:57:21.649Z,29.42
2022-07-29T19:59:48.971Z,29.46
2022-07-29T20:02:16.897Z,29.44
2022-07-29T20:04:44.184Z,29.45
2022-07-29T20:07:11.338Z,29.46
2022-07-29T20:09:38.980Z,29.42
2022-07-29T20:12:08.542Z,29.43
2022-07-29T20:14:36.133Z,29.42
2022-07-29T20:17:03.712Z,29.41
2022-07-29T20:19:30.994Z,29.45
2022-07-29T20:21:58.192Z,29.41
2022-07-29T20:24:26.572Z,29.40
2022-07-29T20:26:53.743Z,29.36
2022-07-29T20:29:22.332Z,29.33
2022-07-29T20:31:53.313Z,29.39
2022-07-29T20:34:24.114Z,29.40
2022-07-29T20:36:51.402Z,29.40
2022-07-29T20:39:18.609Z,29.43
2022-07-29T20:41:45.774Z,29.41
2022-07-29T20:44:12.966Z,29.40
2022-07-29T20:46:41.717Z,29.41
2022-07-29T20:49:08.944Z,29.49
2022-07-29T20:51:43.649Z,29.50
2022-07-29T20:54:11.518Z,29.52
2022-07-29T20:56:38.832Z,29.51
2022-07-29T20:59:06.051Z,29.51
2022-07-29T21:01:33.458Z,29.49
2022-07-29T21:04:02.323Z,29.47
2022-07-29T21:06:29.774Z,29.42
2022-07-29T21:08:56.940Z,29.45
2022-07-29T21:11:43.306Z,29.44
2022-07-29T21:14:11.575Z,29.44
2022-07-29T21:16:38.751Z,29.40
2022-07-29T21:19:07.245Z,29.37
2022-07-29T21:21:34.395Z,29.39
2022-07-29T21:24:01.646Z,29.39
2022-07-29T21:26:28.882Z,29.42
2022-07-29T21:28:56.225Z,29.44
2022-07-29T21:31:23.362Z,29.45
2022-07-29T21:33:50.518Z,29.41
2022-07-29T21:36:47.086Z,29.43
2022-07-29T21:39:06.158Z,29.46
2022-07-29T21:41:33.413Z,29.49
2022-07-29T21:44:01.330Z,29.48
2022-07-29T21:46:28.820Z,29.50
2022-07-29T21:48:56.052Z,29.50
2022-07-29T21:51:24.606Z,29.48
2022-07-29T21:53:53.050Z,29.46
2022-07-29T21:56:20.436Z,29.49
2022-07-29T21:58:49.768Z,29.47
2022-07-29T22:01:17.097Z,29.45
2022-07-29T22:03:44.268Z,29.47
2022-07-29T22:06:17.942Z,29.47
2022-07-29T22:08:46.946Z,29.43
2022-07-29T22:11:14.104Z,29.40
2022-07-29T22:13:41.262Z,29.45
2022-07-29T22:16:08.410Z,29.50
2022-07-29T22:18:35.607Z,29.41
2022-07-29T22:21:02.751Z,29.49
2022-07-29T22:23:29.900Z,29.44
2022-07-29T22:25:58.406Z,29.45
2022-07-29T22:28:25.572Z,29.47
2022-07-29T22:30:52.818Z,29.45
2022-07-29T22:33:20.028Z,29.50
2022-07-29T22:35:48.486Z,29.48
2022-07-29T22:38:16.565Z,29.49
2022-07-29T22:40:43.730Z,29.50
2022-07-29T22:43:12.406Z,29.50
2022-07-29T22:45:39.683Z,29.48
2022-07-29T22:48:06.904Z,29.48
2022-07-29T22:50:34.142Z,29.47
2022-07-29T22:53:01.317Z,29.49
2022-07-29T22:55:28.502Z,29.48
2022-07-29T22:57:55.662Z,29.47
2022-07-29T23:00:24.231Z,29.39
2022-07-29T23:02:51.476Z,29.36
2022-07-29T23:05:18.648Z,29.40
2022-07-29T23:07:45.796Z,29.45
2022-07-29T23:10:12.984Z,29.41
2022-07-29T23:12:40.131Z,29.47
2022-07-29T23:15:07.805Z,29.51
2022-07-29T23:17:36.983Z,29.41
2022-07-29T23:20:06.658Z,29.45
2022-07-29T23:22:33.848Z,29.51
2022-07-29T23:25:01.066Z,29.53
2022-07-29T23:27:28.278Z,29.53
2022-07-29T23:29:55.438Z,29.55
2022-07-29T23:32:22.587Z,29.52
2022-07-29T23:34:51.089Z,29.53
2022-07-29T23:37:18.246Z,29.54
2022-07-29T23:39:45.409Z,29.50
2022-07-29T23:42:12.623Z,29.48
2022-07-29T23:44:39.833Z,29.48
2022-07-29T23:47:07.042Z,29.46
2022-07-29T23:49:34.375Z,29.44
2022-07-29T23:52:03.046Z,29.42
2022-07-29T23:54:30.194Z,29.42
2022-07-29T23:56:57.566Z,29.48
2022-07-29T23:59:25.300Z,29.49
